Time;durP1;ratioP1;P1;durP2;ratioP2;P2;SDS_P1;SDS_P2;PMS_P1;PMS_P2;Temp;Humidity;BMP_temperature;BMP_pressure;BME280_temperature;BME280_humidity;BME280_pressure;Samples;Min_cycle;Max_cycle;Signal;HPM_P1;HPM_P2
2024/03/30 00:01:20;;;;;;;0.80;0.70;;;;;;;;;;6183151;23;20021;-79
2024/03/30 00:03:47;;;;;;;0.82;0.70;;;;;;;;;;6147841;23;20023;-77
2024/03/30 00:06:13;;;;;;;0.75;0.70;;;;;;;;;;6182963;23;20021;-79
2024/03/30 00:08:38;;;;;;;1.25;0.90;;;;;;;;;;6158769;23;20028;-75
2024/03/30 00:11:04;;;;;;;1.33;0.90;;;;;;;;;;6148654;23;20025;-78
2024/03/30 00:13:30;;;;;;;1.58;0.80;;;;;;;;;;6156836;23;20025;-76
2024/03/30 00:15:55;;;;;;;1.52;0.90;;;;;;;;;;6145478;23;20024;-77
2024/03/30 00:18:21;;;;;;;2.20;0.70;;;;;;;;;;6176347;23;20025;-76
2024/03/30 00:20:46;;;;;;;0.93;0.77;;;;;;;;;;6155701;23;20017;-76
2024/03/30 00:23:12;;;;;;;2.00;0.80;;;;;;;;;;6150255;23;20020;-77
2024/03/30 00:25:38;;;;;;;1.77;0.77;;;;;;;;;;6155953;23;20046;-75
2024/03/30 00:28:03;;;;;;;1.70;0.80;;;;;;;;;;6174956;23;20060;-74
2024/03/30 00:30:36;;;;;;;0.77;0.60;;;;;;;;;;6174554;23;20526;-74
2024/03/30 00:33:02;;;;;;;1.70;0.88;;;;;;;;;;6146221;23;20031;-74
2024/03/30 00:35:27;;;;;;;5.18;1.00;;;;;;;;;;6157334;23;20025;-74
2024/03/30 00:37:54;;;;;;;1.85;0.88;;;;;;;;;;6182255;23;20017;-74
2024/03/30 00:40:19;;;;;;;1.73;0.82;;;;;;;;;;6152375;23;20031;-75
2024/03/30 00:42:48;;;;;;;1.48;0.90;;;;;;;;;;6179938;23;20434;-74
2024/03/30 00:45:13;;;;;;;1.60;0.93;;;;;;;;;;6146680;23;20463;-74
2024/03/30 00:47:39;;;;;;;1.05;0.88;;;;;;;;;;6176802;23;20025;-74
2024/03/30 00:50:05;;;;;;;1.10;0.80;;;;;;;;;;6181334;23;20036;-74
2024/03/30 00:52:31;;;;;;;0.95;0.80;;;;;;;;;;6148957;23;20021;-75
2024/03/30 00:54:56;;;;;;;1.75;0.93;;;;;;;;;;6180810;23;20657;-74
2024/03/30 00:57:22;;;;;;;2.28;0.80;;;;;;;;;;6149839;23;20020;-75
2024/03/30 00:59:47;;;;;;;1.73;0.90;;;;;;;;;;6178962;23;20017;-74
2024/03/30 01:02:13;;;;;;;0.95;0.85;;;;;;;;;;6176413;23;20671;-74
2024/03/30 01:04:38;;;;;;;0.75;0.70;;;;;;;;;;6179187;23;20017;-75
2024/03/30 01:07:03;;;;;;;1.20;1.10;;;;;;;;;;6156859;23;20022;-75
2024/03/30 01:09:29;;;;;;;1.25;1.10;;;;;;;;;;6168865;23;20115;-74
2024/03/30 01:11:56;;;;;;;1.85;1.10;;;;;;;;;;6174382;23;20025;-75
2024/03/30 01:14:24;;;;;;;1.98;1.20;;;;;;;;;;6147860;23;20020;-74
2024/03/30 01:16:50;;;;;;;3.28;1.38;;;;;;;;;;6155561;23;20059;-75
2024/03/30 01:19:16;;;;;;;2.03;1.17;;;;;;;;;;6181990;23;20021;-75
2024/03/30 01:21:41;;;;;;;3.30;1.60;;;;;;;;;;6149355;23;20052;-75
2024/03/30 01:24:07;;;;;;;1.98;1.50;;;;;;;;;;6176645;23;20024;-75
2024/03/30 01:26:35;;;;;;;3.40;1.45;;;;;;;;;;6145521;23;20025;-75
2024/03/30 01:29:02;;;;;;;1.90;1.35;;;;;;;;;;6181356;23;20095;-76
2024/03/30 01:31:28;;;;;;;2.38;1.33;;;;;;;;;;6174570;23;20020;-75
2024/03/30 01:33:53;;;;;;;2.47;1.50;;;;;;;;;;6181200;23;20459;-76
2024/03/30 01:36:19;;;;;;;2.80;1.33;;;;;;;;;;6180030;23;20020;-76
2024/03/30 01:38:44;;;;;;;2.58;1.50;;;;;;;;;;6168484;23;20032;-76
2024/03/30 01:41:09;;;;;;;2.25;1.50;;;;;;;;;;6177951;23;20028;-76
2024/03/30 01:43:35;;;;;;;1.73;1.38;;;;;;;;;;6173424;23;20027;-77
2024/03/30 01:46:00;;;;;;;3.90;1.50;;;;;;;;;;6181136;23;20021;-77
2024/03/30 01:48:26;;;;;;;2.83;1.65;;;;;;;;;;6182045;23;20016;-77
2024/03/30 01:50:52;;;;;;;2.90;1.67;;;;;;;;;;6172848;23;20020;-76
2024/03/30 01:53:22;;;;;;;2.70;1.52;;;;;;;;;;6175702;23;20079;-77
2024/03/30 01:55:49;;;;;;;1.63;1.52;;;;;;;;;;6171830;23;20024;-77
2024/03/30 01:58:17;;;;;;;2.75;1.70;;;;;;;;;;6157432;23;20028;-77
2024/03/30 02:00:43;;;;;;;2.33;1.70;;;;;;;;;;6174454;23;20020;-78
2024/03/30 02:03:09;;;;;;;2.88;1.75;;;;;;;;;;6181004;23;20446;-77
2024/03/30 02:05:35;;;;;;;1.48;1.38;;;;;;;;;;6178472;23;20052;-76
2024/03/30 02:08:02;;;;;;;1.88;1.70;;;;;;;;;;6169884;23;20477;-78
2024/03/30 02:10:28;;;;;;;2.23;1.70;;;;;;;;;;6181940;23;20036;-77
2024/03/30 02:12:54;;;;;;;2.70;2.00;;;;;;;;;;6172896;23;20082;-76
2024/03/30 02:15:19;;;;;;;2.55;1.80;;;;;;;;;;6181453;23;20021;-77
2024/03/30 02:17:45;;;;;;;3.13;1.60;;;;;;;;;;6178107;23;20028;-77
2024/03/30 02:20:10;;;;;;;2.33;1.60;;;;;;;;;;6174789;23;20090;-78
2024/03/30 02:22:36;;;;;;;3.22;2.10;;;;;;;;;;6178029;23;20094;-77
2024/03/30 02:25:01;;;;;;;3.67;1.73;;;;;;;;;;6173537;23;20047;-77
2024/03/30 02:27:26;;;;;;;4.28;2.10;;;;;;;;;;6181526;23;20028;-77
2024/03/30 02:29:58;;;;;;;2.33;1.90;;;;;;;;;;6175076;23;20078;-77
2024/03/30 02:32:23;;;;;;;2.50;1.90;;;;;;;;;;6157153;23;20021;-77
2024/03/30 02:34:49;;;;;;;2.78;2.00;;;;;;;;;;6178211;23;20034;-77
2024/03/30 02:37:14;;;;;;;2.22;1.65;;;;;;;;;;6170600;23;20024;-76
2024/03/30 02:39:40;;;;;;;4.00;2.00;;;;;;;;;;6181556;23;20032;-77
2024/03/30 02:42:05;;;;;;;3.00;2.05;;;;;;;;;;6150001;23;20236;-78
2024/03/30 02:44:31;;;;;;;2.47;2.17;;;;;;;;;;6178100;23;20025;-78
2024/03/30 02:46:56;;;;;;;3.30;1.90;;;;;;;;;;6175549;23;20035;-77
2024/03/30 02:49:22;;;;;;;3.22;2.22;;;;;;;;;;6151246;23;20028;-77
2024/03/30 02:51:47;;;;;;;3.03;2.28;;;;;;;;;;6176887;23;20348;-78
2024/03/30 02:54:14;;;;;;;3.80;2.53;;;;;;;;;;6150473;23;20078;-77
2024/03/30 02:56:40;;;;;;;3.95;2.40;;;;;;;;;;6180910;23;20021;-77
2024/03/30 02:59:05;;;;;;;3.10;2.40;;;;;;;;;;6174771;23;20027;-77
2024/03/30 03:01:30;;;;;;;3.83;2.58;;;;;;;;;;6180231;23;20031;-76
2024/03/30 03:03:56;;;;;;;3.83;2.70;;;;;;;;;;6174674;23;20448;-76
2024/03/30 03:06:21;;;;;;;3.20;2.50;;;;;;;;;;6172795;23;20032;-76
2024/03/30 03:08:47;;;;;;;3.75;2.53;;;;;;;;;;6183207;23;20032;-76
2024/03/30 03:11:12;;;;;;;3.65;2.70;;;;;;;;;;6151495;23;20463;-76
2024/03/30 03:13:37;;;;;;;3.10;2.35;;;;;;;;;;6157771;23;20464;-75
2024/03/30 03:16:04;;;;;;;3.00;2.35;;;;;;;;;;6175593;23;20461;-76
2024/03/30 03:18:29;;;;;;;5.45;2.78;;;;;;;;;;6150767;23;20029;-77
2024/03/30 03:20:54;;;;;;;3.88;2.83;;;;;;;;;;6182469;23;20076;-76
2024/03/30 03:23:20;;;;;;;4.85;3.08;;;;;;;;;;6150725;23;20028;-76
2024/03/30 03:25:45;;;;;;;4.18;3.10;;;;;;;;;;6157828;23;20024;-76
2024/03/30 03:28:11;;;;;;;3.35;2.80;;;;;;;;;;6176381;23;20028;-77
2024/03/30 03:30:36;;;;;;;3.72;2.67;;;;;;;;;;6153671;23;20021;-77
2024/03/30 03:33:01;;;;;;;4.05;3.00;;;;;;;;;;6178895;23;20653;-74
2024/03/30 03:35:27;;;;;;;4.18;2.92;;;;;;;;;;6175372;23;20024;-73
2024/03/30 03:37:52;;;;;;;4.20;2.80;;;;;;;;;;6182491;23;20017;-75
2024/03/30 03:40:18;;;;;;;4.50;2.90;;;;;;;;;;6150675;23;20021;-75
2024/03/30 03:42:43;;;;;;;4.18;3.20;;;;;;;;;;6157189;23;20020;-76
2024/03/30 03:45:08;;;;;;;5.40;3.58;;;;;;;;;;6176089;23;20162;-77
2024/03/30 03:47:34;;;;;;;4.68;3.47;;;;;;;;;;6152300;23;20459;-76
2024/03/30 03:50:00;;;;;;;4.10;3.42;;;;;;;;;;6157758;23;20024;-76
2024/03/30 03:52:26;;;;;;;5.03;3.38;;;;;;;;;;6175749;23;20751;-75
2024/03/30 03:54:51;;;;;;;4.95;3.38;;;;;;;;;;6182127;23;20084;-76
2024/03/30 03:57:16;;;;;;;5.68;4.10;;;;;;;;;;6147073;23;20029;-75
2024/03/30 03:59:42;;;;;;;6.45;3.72;;;;;;;;;;6177305;23;20034;-75
2024/03/30 04:02:07;;;;;;;5.88;4.00;;;;;;;;;;6182071;23;20028;-73
2024/03/30 04:04:33;;;;;;;5.80;3.85;;;;;;;;;;6150484;23;20035;-75
2024/03/30 04:06:59;;;;;;;4.55;3.67;;;;;;;;;;6182034;23;20435;-75
2024/03/30 04:09:24;;;;;;;5.03;3.95;;;;;;;;;;6174779;23;20016;-75
2024/03/30 04:11:49;;;;;;;6.32;3.78;;;;;;;;;;6177674;23;20037;-75
2024/03/30 04:14:15;;;;;;;4.25;3.85;;;;;;;;;;6153378;23;20040;-76
2024/03/30 04:16:40;;;;;;;5.78;4.20;;;;;;;;;;6175170;23;20865;-76
2024/03/30 04:19:06;;;;;;;6.20;4.10;;;;;;;;;;6181122;23;20689;-76
2024/03/30 04:21:31;;;;;;;4.88;3.70;;;;;;;;;;6175856;23;20114;-76
2024/03/30 04:23:56;;;;;;;5.05;4.00;;;;;;;;;;6182045;23;20024;-75
2024/03/30 04:26:22;;;;;;;5.20;3.88;;;;;;;;;;6170544;23;20020;-74
2024/03/30 04:28:48;;;;;;;4.80;3.80;;;;;;;;;;6155632;23;20025;-74
2024/03/30 04:31:13;;;;;;;4.72;3.90;;;;;;;;;;6182121;23;20020;-75
2024/03/30 04:33:38;;;;;;;5.80;4.22;;;;;;;;;;6174374;23;20027;-74
2024/03/30 04:36:05;;;;;;;5.30;3.85;;;;;;;;;;6182140;23;20020;-74
2024/03/30 04:38:31;;;;;;;5.38;4.03;;;;;;;;;;6170260;23;20736;-75
2024/03/30 04:40:58;;;;;;;4.70;3.92;;;;;;;;;;6176967;23;20024;-75
2024/03/30 04:43:23;;;;;;;5.00;4.05;;;;;;;;;;6181723;23;20024;-74
2024/03/30 04:45:48;;;;;;;5.32;4.30;;;;;;;;;;6175490;23;20024;-75
2024/03/30 04:48:14;;;;;;;5.53;3.88;;;;;;;;;;6183016;23;20021;-75
2024/03/30 04:50:40;;;;;;;4.85;4.13;;;;;;;;;;6176135;23;20021;-75
2024/03/30 04:53:05;;;;;;;6.50;4.80;;;;;;;;;;6153092;23;20023;-74
2024/03/30 04:55:30;;;;;;;6.18;5.20;;;;;;;;;;6172120;23;20020;-74
2024/03/30 04:57:56;;;;;;;6.15;5.20;;;;;;;;;;6156276;23;20017;-75
2024/03/30 05:00:21;;;;;;;7.50;4.78;;;;;;;;;;6181768;23;20470;-74
2024/03/30 05:02:47;;;;;;;6.80;5.15;;;;;;;;;;6174781;23;20025;-75
2024/03/30 05:05:12;;;;;;;6.22;4.80;;;;;;;;;;6157047;23;20042;-74
2024/03/30 05:07:38;;;;;;;5.57;4.70;;;;;;;;;;6144777;23;20040;-75
2024/03/30 05:10:04;;;;;;;5.43;4.63;;;;;;;;;;6177916;23;20545;-75
2024/03/30 05:12:29;;;;;;;6.45;4.50;;;;;;;;;;6181453;23;20440;-75
2024/03/30 05:14:54;;;;;;;5.75;4.82;;;;;;;;;;6174774;23;20016;-74
2024/03/30 05:17:20;;;;;;;5.10;4.38;;;;;;;;;;6182229;23;20613;-75
2024/03/30 05:22:29;;;;;;;5.50;4.53;;;;;;;;;;6176506;23;20036;-75
2024/03/30 05:24:55;;;;;;;8.30;4.97;;;;;;;;;;6172222;23;20095;-74
2024/03/30 05:27:20;;;;;;;7.35;5.10;;;;;;;;;;6181583;23;20035;-75
2024/03/30 05:29:46;;;;;;;7.00;5.55;;;;;;;;;;6181671;23;20024;-75
2024/03/30 05:32:11;;;;;;;7.18;5.65;;;;;;;;;;6175067;23;20027;-74
2024/03/30 05:34:36;;;;;;;8.10;5.22;;;;;;;;;;6181817;23;20025;-76
2024/03/30 05:37:03;;;;;;;9.50;5.88;;;;;;;;;;6166503;23;20044;-75
2024/03/30 05:39:29;;;;;;;8.07;5.85;;;;;;;;;;6177725;23;20024;-75
2024/03/30 05:41:54;;;;;;;10.18;5.70;;;;;;;;;;6180240;23;20031;-74
2024/03/30 05:44:20;;;;;;;6.88;5.22;;;;;;;;;;6173742;23;20021;-74
2024/03/30 05:46:45;;;;;;;7.72;6.20;;;;;;;;;;6180671;23;20029;-74
2024/03/30 05:49:11;;;;;;;6.60;5.00;;;;;;;;;;6172894;23;20022;-76
2024/03/30 05:51:36;;;;;;;6.35;5.10;;;;;;;;;;6175803;23;20055;-76
2024/03/30 05:54:02;;;;;;;9.60;5.72;;;;;;;;;;6175469;23;20029;-76
2024/03/30 05:56:27;;;;;;;8.27;5.60;;;;;;;;;;6181729;23;20150;-77
2024/03/30 05:58:53;;;;;;;6.85;5.40;;;;;;;;;;6181832;23;20021;-78
2024/03/30 06:01:19;;;;;;;8.52;5.47;;;;;;;;;;6149705;23;20028;-77
2024/03/30 06:03:45;;;;;;;7.07;5.28;;;;;;;;;;6179437;23;20099;-77
2024/03/30 06:06:10;;;;;;;6.25;4.90;;;;;;;;;;6168213;23;20025;-77
2024/03/30 06:08:36;;;;;;;6.20;5.05;;;;;;;;;;6180156;23;20031;-77
2024/03/30 06:11:01;;;;;;;8.65;5.28;;;;;;;;;;6180146;23;20016;-77
2024/03/30 06:13:27;;;;;;;7.38;5.20;;;;;;;;;;6174854;23;20020;-77
2024/03/30 06:16:02;;;;;;;8.50;5.75;;;;;;;;;;6181030;23;20020;-77
2024/03/30 06:18:28;;;;;;;7.68;5.65;;;;;;;;;;6171792;23;20021;-77
2024/03/30 06:20:53;;;;;;;7.47;6.03;;;;;;;;;;6177156;23;20017;-76
2024/03/30 06:23:19;;;;;;;7.95;6.20;;;;;;;;;;6150541;23;20032;-77
2024/03/30 06:25:44;;;;;;;7.13;5.35;;;;;;;;;;6180153;23;20127;-77
2024/03/30 06:28:09;;;;;;;6.82;5.30;;;;;;;;;;6181584;23;20150;-77
2024/03/30 06:30:35;;;;;;;8.30;5.43;;;;;;;;;;6174523;23;20063;-77
2024/03/30 06:33:01;;;;;;;7.72;5.53;;;;;;;;;;6176161;23;20557;-76
2024/03/30 06:35:26;;;;;;;8.00;5.32;;;;;;;;;;6169337;23;20028;-77
2024/03/30 06:37:52;;;;;;;6.95;4.68;;;;;;;;;;6180902;23;20024;-77
2024/03/30 06:45:46;;;;;;;10.60;7.03;;;;;;;;;;6180841;23;20032;-77
2024/03/30 06:48:11;;;;;;;13.88;8.35;;;;;;;;;;6169836;23;20032;-76
2024/03/30 06:50:37;;;;;;;12.57;7.95;;;;;;;;;;6152508;23;20024;-76
2024/03/30 06:53:02;;;;;;;12.13;7.43;;;;;;;;;;6175839;23;20074;-75
2024/03/30 06:55:28;;;;;;;11.45;7.32;;;;;;;;;;6181505;23;20558;-76
2024/03/30 06:57:53;;;;;;;10.63;7.78;;;;;;;;;;6156463;23;20021;-76
2024/03/30 07:00:19;;;;;;;10.35;7.97;;;;;;;;;;6175464;23;20091;-76
2024/03/30 07:02:45;;;;;;;10.75;7.47;;;;;;;;;;6151694;23;20029;-74
2024/03/30 07:05:10;;;;;;;12.95;8.50;;;;;;;;;;6145233;23;20032;-74
2024/03/30 07:07:36;;;;;;;13.00;8.65;;;;;;;;;;6180284;23;20028;-74
2024/03/30 07:10:01;;;;;;;12.80;8.48;;;;;;;;;;6173845;23;20021;-75
2024/03/30 07:12:27;;;;;;;10.68;7.68;;;;;;;;;;6154946;23;20095;-76
2024/03/30 07:14:52;;;;;;;12.15;8.07;;;;;;;;;;6180081;23;20068;-74
2024/03/30 07:17:17;;;;;;;10.55;7.57;;;;;;;;;;6167714;23;20083;-74
2024/03/30 07:19:43;;;;;;;11.27;8.52;;;;;;;;;;6155775;23;20069;-74
2024/03/30 07:22:08;;;;;;;9.43;6.78;;;;;;;;;;6174313;23;20096;-74
2024/03/30 07:24:34;;;;;;;10.57;8.05;;;;;;;;;;6180907;23;20434;-74
2024/03/30 07:26:59;;;;;;;12.05;8.00;;;;;;;;;;6180916;23;20020;-74
2024/03/30 07:29:25;;;;;;;10.88;8.45;;;;;;;;;;6146427;23;20024;-75
2024/03/30 07:31:50;;;;;;;10.60;8.00;;;;;;;;;;6175572;23;20020;-75
2024/03/30 07:34:16;;;;;;;11.60;8.43;;;;;;;;;;6173740;23;20063;-74
2024/03/30 07:36:41;;;;;;;8.60;5.90;;;;;;;;;;6179516;23;20048;-75
2024/03/30 07:39:07;;;;;;;10.82;6.95;;;;;;;;;;6156928;23;20031;-75
2024/03/30 07:41:32;;;;;;;9.80;8.13;;;;;;;;;;6149671;23;20366;-74
2024/03/30 07:43:58;;;;;;;10.35;7.55;;;;;;;;;;6175182;23;20031;-75
2024/03/30 07:46:23;;;;;;;8.27;7.07;;;;;;;;;;6168791;23;20484;-74
2024/03/30 07:48:49;;;;;;;8.85;6.97;;;;;;;;;;6179279;23;20021;-75
2024/03/30 07:51:14;;;;;;;11.73;7.88;;;;;;;;;;6150430;23;20016;-74
2024/03/30 07:53:39;;;;;;;8.60;6.22;;;;;;;;;;6181941;23;20021;-74
2024/03/30 07:56:05;;;;;;;8.15;6.80;;;;;;;;;;6182948;23;20024;-75
2024/03/30 07:58:30;;;;;;;7.70;5.55;;;;;;;;;;6169864;23;20563;-74
2024/03/30 08:00:56;;;;;;;8.75;7.22;;;;;;;;;;6179608;23;20100;-74
2024/03/30 08:03:21;;;;;;;8.93;7.35;;;;;;;;;;6175698;23;20031;-75
2024/03/30 08:05:57;;;;;;;8.57;7.53;;;;;;;;;;6182940;23;20103;-74
2024/03/30 08:08:23;;;;;;;10.40;7.47;;;;;;;;;;6180199;23;20036;-76
2024/03/30 08:10:48;;;;;;;9.10;7.25;;;;;;;;;;6176931;23;20012;-75
2024/03/30 08:13:14;;;;;;;7.28;6.47;;;;;;;;;;6177361;23;20028;-75
2024/03/30 08:15:40;;;;;;;9.57;7.38;;;;;;;;;;6173302;23;20094;-75
2024/03/30 08:18:06;;;;;;;8.75;6.07;;;;;;;;;;6183213;23;20221;-74
2024/03/30 08:20:31;;;;;;;6.65;5.78;;;;;;;;;;6176602;23;20020;-74
2024/03/30 08:22:57;;;;;;;9.18;6.82;;;;;;;;;;6158548;23;20561;-74
2024/03/30 08:25:22;;;;;;;9.05;6.65;;;;;;;;;;6179908;23;20017;-75
2024/03/30 08:27:48;;;;;;;7.05;5.35;;;;;;;;;;6145831;23;20020;-74
2024/03/30 08:30:13;;;;;;;6.22;5.30;;;;;;;;;;6182223;23;20027;-75
2024/03/30 08:32:38;;;;;;;7.85;6.50;;;;;;;;;;6151860;23;20455;-75
2024/03/30 08:35:04;;;;;;;9.23;6.53;;;;;;;;;;6158315;23;20127;-75
2024/03/30 08:37:29;;;;;;;7.30;5.55;;;;;;;;;;6182412;23;20288;-75
2024/03/30 08:39:55;;;;;;;7.97;6.15;;;;;;;;;;6172770;23;20016;-74
2024/03/30 08:42:20;;;;;;;8.18;6.60;;;;;;;;;;6178183;23;20090;-74
2024/03/30 08:44:47;;;;;;;9.38;5.70;;;;;;;;;;6149757;23;20032;-74
2024/03/30 08:47:12;;;;;;;8.65;5.95;;;;;;;;;;6182822;23;20024;-74
2024/03/30 08:49:38;;;;;;;9.88;6.38;;;;;;;;;;6152729;23;20034;-75
2024/03/30 08:52:03;;;;;;;6.38;4.40;;;;;;;;;;6182363;23;20115;-74
2024/03/30 08:54:29;;;;;;;8.48;4.97;;;;;;;;;;6179590;23;20028;-75
2024/03/30 08:56:54;;;;;;;9.07;5.70;;;;;;;;;;6171047;23;20024;-74
2024/03/30 08:59:20;;;;;;;7.53;5.45;;;;;;;;;;6158337;23;20036;-74
2024/03/30 09:01:45;;;;;;;6.43;5.00;;;;;;;;;;6175583;23;20020;-73
2024/03/30 09:04:11;;;;;;;6.75;4.88;;;;;;;;;;6183027;23;20024;-75
2024/03/30 09:06:36;;;;;;;8.05;6.00;;;;;;;;;;6158378;23;20514;-74
2024/03/30 09:09:02;;;;;;;9.63;5.18;;;;;;;;;;6172004;23;20024;-75
2024/03/30 09:11:27;;;;;;;7.35;5.10;;;;;;;;;;6178252;23;20021;-75
2024/03/30 09:13:53;;;;;;;8.40;6.13;;;;;;;;;;6148612;23;20020;-75
2024/03/30 09:16:18;;;;;;;7.10;4.65;;;;;;;;;;6183713;23;20024;-75
2024/03/30 09:18:44;;;;;;;8.35;5.30;;;;;;;;;;6155385;23;20086;-75
2024/03/30 09:21:09;;;;;;;6.28;4.70;;;;;;;;;;6180914;23;20078;-77
2024/03/30 09:23:35;;;;;;;8.63;4.97;;;;;;;;;;6179099;23;20039;-77
2024/03/30 09:26:00;;;;;;;7.68;4.90;;;;;;;;;;6147959;23;20073;-76
2024/03/30 09:28:27;;;;;;;10.75;4.90;;;;;;;;;;6159293;23;20025;-76
2024/03/30 09:30:52;;;;;;;10.63;4.60;;;;;;;;;;6152176;23;20452;-77
2024/03/30 09:33:18;;;;;;;11.98;5.78;;;;;;;;;;6158315;23;20082;-76
2024/03/30 09:35:43;;;;;;;7.68;3.58;;;;;;;;;;6157975;23;20017;-77
2024/03/30 09:38:09;;;;;;;12.02;5.15;;;;;;;;;;6173714;23;20020;-77
2024/03/30 09:40:35;;;;;;;9.38;4.90;;;;;;;;;;6178539;23;20052;-77
2024/03/30 09:43:01;;;;;;;11.95;4.57;;;;;;;;;;6173874;23;20435;-77
2024/03/30 09:45:28;;;;;;;12.35;4.57;;;;;;;;;;6160275;23;20024;-77
2024/03/30 09:47:57;;;;;;;11.73;3.35;;;;;;;;;;6176966;23;20451;-77
2024/03/30 09:50:22;;;;;;;13.73;3.85;;;;;;;;;;6182361;23;20024;-76
2024/03/30 09:52:49;;;;;;;11.00;4.18;;;;;;;;;;6177344;23;20021;-76
2024/03/30 09:55:18;;;;;;;10.18;3.92;;;;;;;;;;6176930;23;20020;-77
2024/03/30 09:57:52;;;;;;;11.15;5.03;;;;;;;;;;6158724;23;20074;-76
2024/03/30 10:00:18;;;;;;;13.27;4.30;;;;;;;;;;6176827;23;20016;-77
2024/03/30 10:02:44;;;;;;;16.75;4.40;;;;;;;;;;6155374;23;20023;-77
2024/03/30 10:05:10;;;;;;;10.95;4.53;;;;;;;;;;6152894;23;20020;-76
2024/03/30 10:07:37;;;;;;;14.65;4.00;;;;;;;;;;6175196;23;20020;-77
2024/03/30 10:10:14;;;;;;;15.23;4.20;;;;;;;;;;6158309;23;20016;-77
2024/03/30 10:12:52;;;;;;;20.45;4.28;;;;;;;;;;6150602;23;20028;-76
2024/03/30 10:15:38;;;;;;;17.80;3.85;;;;;;;;;;6158932;23;20051;-77
2024/03/30 10:18:03;;;;;;;13.63;3.90;;;;;;;;;;6171138;23;20020;-77
2024/03/30 10:20:29;;;;;;;17.58;4.53;;;;;;;;;;6179147;23;20044;-77
2024/03/30 10:22:55;;;;;;;13.85;3.97;;;;;;;;;;6158873;23;20021;-77
2024/03/30 10:25:20;;;;;;;14.75;3.85;;;;;;;;;;6151131;23;20025;-77
2024/03/30 10:27:46;;;;;;;18.05;4.80;;;;;;;;;;6182393;23;20024;-77
2024/03/30 10:30:11;;;;;;;14.80;4.40;;;;;;;;;;6149104;23;20025;-74
2024/03/30 10:32:37;;;;;;;12.63;2.95;;;;;;;;;;6175130;23;20021;-77
2024/03/30 10:35:06;;;;;;;16.88;4.15;;;;;;;;;;6172972;23;20024;-75
2024/03/30 10:37:32;;;;;;;13.48;3.30;;;;;;;;;;6180737;23;20016;-77
2024/03/30 10:39:58;;;;;;;14.85;4.25;;;;;;;;;;6156868;23;20071;-76
2024/03/30 10:42:23;;;;;;;15.80;4.38;;;;;;;;;;6174922;23;20020;-74
2024/03/30 10:44:52;;;;;;;23.98;5.07;;;;;;;;;;6153778;23;20108;-74
2024/03/30 10:47:18;;;;;;;21.60;4.25;;;;;;;;;;6194457;23;20459;-76
2024/03/30 10:49:43;;;;;;;18.15;3.47;;;;;;;;;;6177004;23;20052;-76
2024/03/30 10:52:13;;;;;;;14.85;3.47;;;;;;;;;;6156614;23;20043;-76
2024/03/30 10:54:38;;;;;;;18.25;3.65;;;;;;;;;;6149314;23;20036;-77
2024/03/30 10:57:04;;;;;;;15.40;3.47;;;;;;;;;;6180419;23;20025;-76
2024/03/30 10:59:34;;;;;;;15.02;3.60;;;;;;;;;;6174910;23;20025;-76
2024/03/30 11:02:00;;;;;;;22.23;4.18;;;;;;;;;;6201596;23;20024;-77
2024/03/30 11:04:25;;;;;;;17.35;4.35;;;;;;;;;;6179387;23;20043;-76
2024/03/30 11:06:51;;;;;;;17.02;3.78;;;;;;;;;;6173561;23;20483;-79
2024/03/30 11:09:17;;;;;;;15.48;4.18;;;;;;;;;;6181936;23;20467;-79
2024/03/30 11:11:46;;;;;;;12.30;4.68;;;;;;;;;;6149004;23;20036;-81
2024/03/30 11:14:11;;;;;;;16.33;4.35;;;;;;;;;;6153710;23;20083;-76
2024/03/30 11:16:41;;;;;;;14.32;3.90;;;;;;;;;;6170458;23;20025;-77
2024/03/30 11:19:10;;;;;;;20.85;4.35;;;;;;;;;;6179984;23;20036;-75
2024/03/30 11:21:35;;;;;;;;;;;;;;;;;;6182122;23;20020;-77
2024/03/30 11:24:03;;;;;;;23.50;5.47;;;;;;;;;;6177983;23;19904;-76
2024/03/30 11:26:31;;;;;;;18.65;4.97;;;;;;;;;;6181281;23;20024;-73
2024/03/30 11:29:07;;;;;;;18.13;4.22;;;;;;;;;;6171584;23;20020;-75
2024/03/30 11:31:48;;;;;;;14.30;3.50;;;;;;;;;;6177506;23;20055;-77
2024/03/30 11:34:28;;;;;;;22.23;4.43;;;;;;;;;;6155931;23;20031;-77
2024/03/30 11:36:56;;;;;;;25.08;4.22;;;;;;;;;;6182888;23;20086;-77
2024/03/30 11:39:27;;;;;;;14.07;4.30;;;;;;;;;;6159208;23;20083;-82
2024/03/30 11:41:55;;;;;;;22.35;5.03;;;;;;;;;;6176414;23;20028;-81
2024/03/30 11:44:23;;;;;;;18.40;3.95;;;;;;;;;;6152397;23;20029;-77
2024/03/30 11:46:49;;;;;;;17.00;3.15;;;;;;;;;;6150847;23;20185;-79
2024/03/30 11:49:15;;;;;;;15.02;3.28;;;;;;;;;;6158387;23;20347;-80
2024/03/30 11:51:41;;;;;;;17.92;3.28;;;;;;;;;;6177154;23;20581;-77
2024/03/30 11:54:26;;;;;;;19.45;4.18;;;;;;;;;;6182095;23;20060;-77
2024/03/30 11:57:11;;;;;;;23.92;3.97;;;;;;;;;;6177146;23;20021;-76
2024/03/30 11:59:37;;;;;;;23.20;3.97;;;;;;;;;;6147238;23;20074;-77
2024/03/30 12:02:05;;;;;;;20.08;4.15;;;;;;;;;;6183404;23;20024;-78
2024/03/30 12:04:31;;;;;;;18.88;5.00;;;;;;;;;;6150542;23;20020;-77
2024/03/30 12:06:57;;;;;;;18.45;4.28;;;;;;;;;;6157466;23;20116;-77
2024/03/30 12:09:27;;;;;;;29.17;4.55;;;;;;;;;;6155181;23;20058;-76
2024/03/30 12:11:53;;;;;;;26.73;5.93;;;;;;;;;;6173770;23;20020;-74
2024/03/30 12:14:19;;;;;;;30.42;4.72;;;;;;;;;;6183108;23;20020;-76
2024/03/30 12:16:59;;;;;;;19.45;4.57;;;;;;;;;;6153639;23;20066;-75
2024/03/30 12:19:25;;;;;;;27.75;4.90;;;;;;;;;;6164374;23;20028;-78
2024/03/30 12:21:50;;;;;;;26.75;5.03;;;;;;;;;;6185947;23;20029;-76
2024/03/30 12:24:16;;;;;;;19.42;4.55;;;;;;;;;;6187999;23;20494;-76
2024/03/30 12:26:42;;;;;;;31.40;5.80;;;;;;;;;;6162154;23;20020;-76
2024/03/30 12:29:08;;;;;;;33.30;4.53;;;;;;;;;;6137663;23;20350;-76
2024/03/30 12:31:33;;;;;;;25.75;4.10;;;;;;;;;;6187641;23;20031;-77
2024/03/30 12:33:59;;;;;;;30.75;4.43;;;;;;;;;;6186708;23;20437;-76
2024/03/30 12:36:24;;;;;;;26.13;3.85;;;;;;;;;;6189032;23;20016;-75
2024/03/30 12:38:51;;;;;;;20.95;3.75;;;;;;;;;;6160149;23;20021;-76
2024/03/30 12:41:17;;;;;;;17.33;3.67;;;;;;;;;;6184722;23;20686;-76
2024/03/30 12:43:48;;;;;;;16.08;2.60;;;;;;;;;;6183661;23;20017;-74
2024/03/30 12:46:20;;;;;;;21.52;3.40;;;;;;;;;;6187246;23;20020;-74
2024/03/30 12:48:45;;;;;;;25.77;3.80;;;;;;;;;;6187855;23;20471;-75
2024/03/30 12:51:11;;;;;;;24.25;2.90;;;;;;;;;;6187182;23;20060;-77
2024/03/30 12:53:37;;;;;;;17.17;2.55;;;;;;;;;;6176279;23;20079;-77
2024/03/30 12:56:03;;;;;;;13.55;2.70;;;;;;;;;;6183218;23;20025;-78
2024/03/30 12:58:29;;;;;;;14.30;2.75;;;;;;;;;;6151624;23;20074;-77
2024/03/30 13:00:55;;;;;;;34.10;3.17;;;;;;;;;;6157528;23;20031;-77
2024/03/30 13:03:20;;;;;;;14.05;2.35;;;;;;;;;;6150825;23;20024;-77
2024/03/30 13:05:48;;;;;;;16.90;2.83;;;;;;;;;;6178535;23;20063;-76
2024/03/30 13:08:14;;;;;;;14.57;2.70;;;;;;;;;;6147713;23;20106;-75
2024/03/30 13:10:41;;;;;;;11.57;2.65;;;;;;;;;;6154887;23;21037;-76
2024/03/30 13:13:07;;;;;;;18.35;2.63;;;;;;;;;;6157477;23;20032;-76
2024/03/30 13:15:33;;;;;;;19.30;3.25;;;;;;;;;;6149801;23;20021;-74
2024/03/30 13:18:06;;;;;;;19.00;3.33;;;;;;;;;;6205837;23;20025;-73
2024/03/30 13:20:31;;;;;;;13.18;2.88;;;;;;;;;;6169218;23;20033;-73
2024/03/30 13:22:58;;;;;;;8.65;2.67;;;;;;;;;;6179874;23;20025;-75
2024/03/30 13:25:24;;;;;;;8.32;2.28;;;;;;;;;;6181052;23;20459;-75
2024/03/30 13:27:50;;;;;;;16.67;3.13;;;;;;;;;;6172318;23;20032;-74
2024/03/30 13:30:15;;;;;;;12.63;2.92;;;;;;;;;;6155666;23;20024;-75
2024/03/30 13:32:41;;;;;;;11.27;2.92;;;;;;;;;;6144287;23;20028;-74
2024/03/30 13:35:09;;;;;;;10.70;3.10;;;;;;;;;;6177090;23;20477;-75
2024/03/30 13:37:35;;;;;;;6.38;2.30;;;;;;;;;;6149454;23;20021;-74
2024/03/30 13:40:04;;;;;;;9.90;2.85;;;;;;;;;;6155444;23;20021;-75
2024/03/30 13:42:29;;;;;;;6.20;2.50;;;;;;;;;;6180095;23;20025;-77
2024/03/30 13:44:55;;;;;;;6.68;3.20;;;;;;;;;;6172250;23;20028;-77
2024/03/30 13:47:20;;;;;;;11.68;3.30;;;;;;;;;;6151549;23;20805;-78
2024/03/30 13:49:46;;;;;;;9.10;3.38;;;;;;;;;;6170934;23;20048;-78
2024/03/30 13:52:11;;;;;;;9.43;3.47;;;;;;;;;;6182044;23;20028;-77
2024/03/30 13:54:37;;;;;;;6.43;2.72;;;;;;;;;;6156330;23;20032;-77
2024/03/30 13:57:03;;;;;;;6.35;2.85;;;;;;;;;;6173230;23;20048;-76
2024/03/30 13:59:29;;;;;;;5.45;2.80;;;;;;;;;;6153569;23;20024;-77
2024/03/30 14:01:54;;;;;;;8.65;3.10;;;;;;;;;;6170381;23;20032;-77
2024/03/30 14:04:20;;;;;;;5.95;2.95;;;;;;;;;;6181288;23;20021;-80
2024/03/30 14:06:45;;;;;;;5.18;3.13;;;;;;;;;;6152798;23;20104;-76
2024/03/30 14:09:12;;;;;;;5.43;3.13;;;;;;;;;;6177862;23;20864;-78
2024/03/30 14:11:38;;;;;;;7.15;3.38;;;;;;;;;;6156877;23;20025;-77
2024/03/30 14:14:03;;;;;;;7.13;4.10;;;;;;;;;;6172585;23;20031;-78
2024/03/30 14:16:29;;;;;;;8.25;4.07;;;;;;;;;;6154059;23;20028;-78
2024/03/30 14:18:54;;;;;;;6.55;4.55;;;;;;;;;;6175731;23;20467;-78
2024/03/30 14:21:20;;;;;;;8.10;4.88;;;;;;;;;;6156345;23;20166;-79
2024/03/30 14:23:45;;;;;;;7.88;5.40;;;;;;;;;;6181183;23;20025;-78
2024/03/30 14:26:10;;;;;;;9.30;6.05;;;;;;;;;;6175587;23;20025;-77
2024/03/30 14:28:36;;;;;;;8.43;6.60;;;;;;;;;;6152350;23;20078;-77
2024/03/30 14:31:02;;;;;;;9.23;6.95;;;;;;;;;;6173156;23;20052;-78
2024/03/30 14:33:27;;;;;;;8.95;7.10;;;;;;;;;;6182243;23;20032;-78
2024/03/30 14:35:52;;;;;;;10.48;7.85;;;;;;;;;;6154998;23;20343;-77
2024/03/30 14:38:18;;;;;;;9.35;6.43;;;;;;;;;;6175036;23;20687;-78
2024/03/30 14:40:43;;;;;;;11.60;6.80;;;;;;;;;;6178201;23;20025;-76